Saint-Charles-De-Bellechasse, Canada
Current Conditions -  °F | °C
As of 6:00 PM on Monday 22 Dec 2014 (Local Time) from CYQB Reporting Station
Broken Clouds Broken Clouds  
Wind Chill: 21°   Ceiling: 3500
Heat Index: 21°   Visibility: 10mi
Dew Point: 16°   Wind: 2mph
Humidity: 80%   Direction: 60°ENE
Pressure: 30.39"   Gusts: NA
Location:  46.77°N, 70.95°W
Report Text: CYQB 222300Z 06002KT 10SM SCT022 BKN035 M06/M09 A3039 RMK SC3SC4 SLP296
Loading
Personal Weather Stations






























Interactive Weather Map New forecast layout! Learn more

10-Day Weather Forecast

Advertisements
Track Severe Weather on mobile